KHIE/HIE METAR and TAF weather

Enter ICAO airport designator
Station Type Date Time Source
KHIE METAR 2021/03/05 06:52 UTC NOAA

KHIE 050652Z AUTO 27006KT 10SM OVC032 M11/M17 A2967 RMK AO2 SNE07 SLP066 P0000 T11111167


Station Type Date Time Source
KHIE Decoded METAR 2021/03/05 06:52 UTC NOAA

MT WASHINGTON REGIONAL AIRPORT , NH, United States (KHIE) 44-22N 71-33W 318M
Mar 05, 2021 - 01:52 AM EST / 2021.03.05 0652 UTC
Wind: from the W (270 degrees) at 7 MPH (6 KT):0
Visibility: 10 mile(s):0
Sky conditions: overcast
Precipitation last hour: A trace
Temperature: 12.0 F (-11.1 C)
Windchill: 1 F (-17 C):1
Dew Point: 1.9 F (-16.7 C)
Relative Humidity: 63%
Pressure (altimeter): 29.67 in. Hg (1004 hPa)
ob: KHIE 050652Z AUTO 27006KT 10SM OVC032 M11/M17 A2967 RMK AO2 SNE07 SLP066 P0000 T11111167
cycle: 7

Station Type Date Time Source
KHIE TAF 2021/03/05 06:22 UTC NOAA

TAF KHIE 050520Z 0506/0606 28007KT P6SM OVC030
FM050700 27008KT P6SM BKN040
FM051400 28012G20KT P6SM BKN040
FM052200 29011KT 2SM BR BKN030

Example: see airport list